Time;durP1;ratioP1;P1;durP2;ratioP2;P2;SDS_P1;SDS_P2;PMS_P1;PMS_P2;Temp;Humidity;BMP_temperature;BMP_pressure;BME280_temperature;BME280_humidity;BME280_pressure;Samples;Min_cycle;Max_cycle;Signal;HPM_P1;HPM_P2
2021/03/04 00:01:21;;;;;;;19.90;15.77;;;;;;;;;;5048388;28;20192;-86
2021/03/04 00:03:47;;;;;;;21.33;15.67;;;;;;;;;;5048578;28;20185;-86
2021/03/04 00:06:13;;;;;;;18.60;14.73;;;;;;;;;;5033425;28;20236;-86
2021/03/04 00:08:39;;;;;;;25.20;17.03;;;;;;;;;;5061686;28;20184;-87
2021/03/04 00:11:05;;;;;;;21.63;16.70;;;;;;;;;;5041840;28;20737;-86
2021/03/04 00:13:31;;;;;;;22.87;16.47;;;;;;;;;;5049282;28;20193;-86
2021/03/04 00:15:57;;;;;;;20.60;15.97;;;;;;;;;;5039930;28;20325;-86
2021/03/04 00:18:23;;;;;;;23.87;15.90;;;;;;;;;;5043376;28;20655;-86
2021/03/04 00:20:51;;;;;;;20.60;14.93;;;;;;;;;;5047367;28;20173;-86
2021/03/04 00:23:17;;;;;;;24.43;17.13;;;;;;;;;;5046918;28;20176;-86
2021/03/04 00:25:43;;;;;;;22.60;16.47;;;;;;;;;;5068566;28;20183;-86
2021/03/04 00:28:09;;;;;;;21.73;15.23;;;;;;;;;;5048846;28;20187;-86
2021/03/04 00:30:35;;;;;;;21.93;15.77;;;;;;;;;;5037675;28;20693;-86
2021/03/04 00:33:01;;;;;;;23.50;15.17;;;;;;;;;;5035778;28;20643;-86
2021/03/04 00:35:27;;;;;;;19.27;14.53;;;;;;;;;;5056940;28;20184;-86
2021/03/04 00:37:54;;;;;;;23.47;15.57;;;;;;;;;;5043884;28;20211;-86
2021/03/04 00:40:21;;;;;;;19.33;15.43;;;;;;;;;;5046242;28;20604;-86
2021/03/04 00:42:47;;;;;;;19.53;14.87;;;;;;;;;;5041379;28;20657;-86
2021/03/04 00:45:15;;;;;;;22.37;14.97;;;;;;;;;;5042153;28;20632;-86
2021/03/04 00:47:41;;;;;;;20.40;14.90;;;;;;;;;;5044456;28;20180;-87
2021/03/04 00:50:08;;;;;;;20.30;15.37;;;;;;;;;;5025832;28;20613;-86
2021/03/04 00:52:34;;;;;;;20.00;15.53;;;;;;;;;;5053054;28;20223;-86
2021/03/04 00:55:00;;;;;;;21.53;15.10;;;;;;;;;;5049418;28;20177;-86
2021/03/04 00:57:26;;;;;;;18.80;14.03;;;;;;;;;;5063718;28;20204;-86
2021/03/04 00:59:53;;;;;;;21.53;14.23;;;;;;;;;;5039809;28;20614;-86
2021/03/04 01:02:19;;;;;;;19.37;14.50;;;;;;;;;;5035593;28;20232;-86
2021/03/04 01:04:45;;;;;;;20.80;14.77;;;;;;;;;;5037295;28;20659;-87
2021/03/04 01:07:11;;;;;;;21.83;15.20;;;;;;;;;;5055492;28;20181;-87
2021/03/04 01:09:37;;;;;;;19.47;13.57;;;;;;;;;;5038371;28;20197;-88
2021/03/04 01:12:03;;;;;;;23.10;14.10;;;;;;;;;;5037340;28;20185;-87
2021/03/04 01:14:29;;;;;;;20.00;14.63;;;;;;;;;;5049640;28;20263;-87
2021/03/04 01:16:57;;;;;;;20.30;13.97;;;;;;;;;;5049000;28;20197;-87
2021/03/04 01:19:23;;;;;;;20.20;14.53;;;;;;;;;;5038915;28;20201;-87
2021/03/04 01:21:50;;;;;;;20.07;14.17;;;;;;;;;;5042801;28;20177;-87
2021/03/04 01:24:16;;;;;;;18.73;14.57;;;;;;;;;;5034068;28;20211;-87
2021/03/04 01:26:42;;;;;;;21.87;15.27;;;;;;;;;;5035877;28;20612;-87
2021/03/04 01:29:08;;;;;;;17.90;14.20;;;;;;;;;;5039742;28;20177;-87
2021/03/04 01:31:34;;;;;;;19.33;14.27;;;;;;;;;;5060640;28;20264;-87
2021/03/04 01:34:00;;;;;;;20.80;14.70;;;;;;;;;;5051128;28;20621;-87
2021/03/04 01:36:26;;;;;;;19.43;15.07;;;;;;;;;;5038107;28;20212;-87
2021/03/04 01:38:52;;;;;;;19.03;13.67;;;;;;;;;;5054302;28;20219;-87
2021/03/04 01:41:18;;;;;;;19.13;14.97;;;;;;;;;;5052182;28;20185;-87
2021/03/04 01:43:45;;;;;;;20.37;15.27;;;;;;;;;;5043180;28;20177;-87
2021/03/04 01:46:11;;;;;;;21.57;15.53;;;;;;;;;;5042486;28;20184;-87
2021/03/04 01:48:37;;;;;;;24.07;15.00;;;;;;;;;;5035619;28;20229;-87
2021/03/04 01:51:03;;;;;;;22.70;15.40;;;;;;;;;;5052353;28;20651;-87
2021/03/04 01:53:30;;;;;;;18.23;14.83;;;;;;;;;;5046793;28;20579;-87
2021/03/04 01:55:56;;;;;;;18.93;14.40;;;;;;;;;;5034637;28;20173;-87
2021/03/04 01:58:22;;;;;;;20.13;15.27;;;;;;;;;;5044679;28;20208;-87
2021/03/04 02:03:52;;;;;;;19.63;15.53;;;;;;;;;;5050942;28;20176;-87
2021/03/04 02:06:18;;;;;;;21.50;15.63;;;;;;;;;;5048048;28;20192;-87
2021/03/04 02:08:48;;;;;;;20.53;15.23;;;;;;;;;;5042103;28;20177;-87
2021/03/04 02:11:17;;;;;;;20.10;15.63;;;;;;;;;;5064750;28;20540;-87
2021/03/04 02:13:46;;;;;;;18.77;15.77;;;;;;;;;;5042797;28;20220;-87
2021/03/04 02:16:20;;;;;;;21.00;16.57;;;;;;;;;;5051224;28;20189;-87
2021/03/04 02:18:48;;;;;;;19.63;14.90;;;;;;;;;;5035921;28;20176;-87
2021/03/04 02:21:26;;;;;;;22.87;16.90;;;;;;;;;;5052440;28;20174;-87
2021/03/04 02:24:11;;;;;;;20.87;16.80;;;;;;;;;;5053734;28;20626;-87
2021/03/04 02:26:55;;;;;;;20.47;15.83;;;;;;;;;;5045235;28;20277;-87
2021/03/04 02:29:22;;;;;;;21.43;17.17;;;;;;;;;;5048146;28;20181;-87
2021/03/04 02:31:49;;;;;;;21.60;17.40;;;;;;;;;;5066458;28;20200;-87
2021/03/04 02:34:17;;;;;;;22.93;16.87;;;;;;;;;;5062521;28;20632;-87
2021/03/04 02:36:45;;;;;;;22.60;17.37;;;;;;;;;;5052977;28;20271;-87
2021/03/04 02:39:12;;;;;;;22.17;17.23;;;;;;;;;;5055902;28;20614;-87
2021/03/04 02:41:39;;;;;;;23.20;17.70;;;;;;;;;;5046763;28;20246;-87
2021/03/04 02:44:09;;;;;;;23.23;17.57;;;;;;;;;;5050585;28;20172;-87
2021/03/04 02:46:37;;;;;;;25.10;18.57;;;;;;;;;;5052453;28;20213;-87
2021/03/04 02:49:04;;;;;;;24.10;18.77;;;;;;;;;;5046352;28;20235;-86
2021/03/04 02:51:31;;;;;;;24.47;18.10;;;;;;;;;;5068934;28;20184;-87
2021/03/04 02:53:58;;;;;;;23.87;18.37;;;;;;;;;;5042419;28;20212;-87
2021/03/04 02:56:25;;;;;;;26.37;19.80;;;;;;;;;;5043544;28;20208;-87
2021/03/04 02:58:52;;;;;;;26.30;18.47;;;;;;;;;;5048934;28;20176;-87
2021/03/04 03:01:19;;;;;;;26.90;18.43;;;;;;;;;;5052904;28;20203;-87
2021/03/04 03:03:45;;;;;;;28.13;20.50;;;;;;;;;;5043216;28;20522;-87
2021/03/04 03:06:11;;;;;;;26.80;20.87;;;;;;;;;;5050347;28;20188;-87
2021/03/04 03:08:38;;;;;;;25.97;20.57;;;;;;;;;;5055139;28;20179;-87
2021/03/04 03:11:04;;;;;;;29.07;20.30;;;;;;;;;;5048260;28;20196;-87
2021/03/04 03:13:30;;;;;;;30.40;19.57;;;;;;;;;;5042041;28;20180;-87
2021/03/04 03:15:56;;;;;;;30.03;20.27;;;;;;;;;;5063104;28;20595;-87
2021/03/04 03:18:22;;;;;;;32.20;20.10;;;;;;;;;;5063611;28;20232;-87
2021/03/04 03:20:48;;;;;;;25.60;19.73;;;;;;;;;;5057159;28;20195;-87
2021/03/04 03:23:14;;;;;;;27.17;20.00;;;;;;;;;;5051920;28;20554;-87
2021/03/04 03:25:40;;;;;;;26.73;19.47;;;;;;;;;;5055798;28;20896;-87
2021/03/04 03:28:06;;;;;;;21.97;19.03;;;;;;;;;;5057756;28;20172;-87
2021/03/04 03:30:33;;;;;;;28.97;19.77;;;;;;;;;;5057363;28;20184;-86
2021/03/04 03:33:02;;;;;;;25.80;19.47;;;;;;;;;;5053542;28;20230;-86
2021/03/04 03:35:28;;;;;;;28.77;21.17;;;;;;;;;;5043748;28;20188;-87
2021/03/04 03:37:55;;;;;;;29.23;20.93;;;;;;;;;;5056768;28;20686;-87
2021/03/04 03:40:22;;;;;;;27.23;19.83;;;;;;;;;;5057401;28;20180;-87
2021/03/04 03:42:49;;;;;;;26.37;19.93;;;;;;;;;;5039107;28;20185;-87
2021/03/04 03:45:17;;;;;;;26.10;19.27;;;;;;;;;;5053029;28;20181;-87
2021/03/04 03:47:43;;;;;;;24.03;18.70;;;;;;;;;;5066057;28;20195;-87
2021/03/04 03:50:12;;;;;;;24.93;19.10;;;;;;;;;;5072299;28;20632;-87
2021/03/04 03:52:39;;;;;;;26.73;20.27;;;;;;;;;;5054436;28;20188;-87
2021/03/04 03:55:05;;;;;;;29.70;18.93;;;;;;;;;;5046893;28;20272;-86
2021/03/04 03:57:31;;;;;;;28.10;20.47;;;;;;;;;;5068152;28;20201;-87
2021/03/04 03:59:57;;;;;;;27.50;19.73;;;;;;;;;;5048108;28;20227;-87
2021/03/04 04:02:24;;;;;;;25.60;19.03;;;;;;;;;;5057855;28;20176;-87
2021/03/04 04:04:50;;;;;;;25.63;19.03;;;;;;;;;;5058252;28;20211;-87
2021/03/04 04:07:17;;;;;;;26.60;19.07;;;;;;;;;;5057398;28;20234;-87
2021/03/04 04:09:43;;;;;;;32.03;19.83;;;;;;;;;;5056401;28;20200;-87
2021/03/04 04:12:09;;;;;;;26.37;19.97;;;;;;;;;;5051887;28;20541;-87
2021/03/04 04:14:35;;;;;;;28.53;20.63;;;;;;;;;;5064998;28;20252;-87
2021/03/04 04:17:02;;;;;;;30.83;22.10;;;;;;;;;;5036832;28;20197;-87
2021/03/04 04:19:28;;;;;;;25.90;19.83;;;;;;;;;;5047436;28;20265;-87
2021/03/04 04:21:54;;;;;;;27.23;19.67;;;;;;;;;;5034101;28;20181;-87
2021/03/04 04:24:20;;;;;;;26.73;19.63;;;;;;;;;;5052090;28;20239;-87
2021/03/04 04:26:46;;;;;;;27.47;19.70;;;;;;;;;;5068578;28;20181;-87
2021/03/04 04:29:12;;;;;;;29.30;21.10;;;;;;;;;;5043962;28;20234;-87
2021/03/04 04:31:38;;;;;;;29.13;20.13;;;;;;;;;;5043305;28;20648;-87
2021/03/04 04:34:04;;;;;;;27.60;20.83;;;;;;;;;;5050989;28;20188;-87
2021/03/04 04:36:30;;;;;;;29.00;21.07;;;;;;;;;;5055609;28;20197;-87
2021/03/04 04:38:56;;;;;;;27.20;19.90;;;;;;;;;;5052986;28;20697;-86
2021/03/04 04:41:23;;;;;;;29.50;20.73;;;;;;;;;;5072064;28;20186;-87
2021/03/04 04:43:49;;;;;;;30.13;20.97;;;;;;;;;;5043091;28;20591;-86
2021/03/04 04:46:15;;;;;;;28.17;20.47;;;;;;;;;;5052801;28;20190;-87
2021/03/04 04:48:43;;;;;;;29.63;20.63;;;;;;;;;;5055661;28;20702;-86
2021/03/04 04:51:09;;;;;;;29.73;20.83;;;;;;;;;;5057580;28;20331;-87
2021/03/04 04:53:35;;;;;;;29.93;21.60;;;;;;;;;;5044395;28;20177;-86
2021/03/04 04:56:01;;;;;;;29.60;20.97;;;;;;;;;;5050636;28;20576;-87
2021/03/04 04:58:27;;;;;;;27.10;20.63;;;;;;;;;;5046824;28;20201;-87
2021/03/04 05:00:53;;;;;;;30.57;20.50;;;;;;;;;;5055718;28;20181;-87
2021/03/04 05:03:19;;;;;;;28.20;20.30;;;;;;;;;;5046032;28;20187;-86
2021/03/04 05:05:45;;;;;;;27.60;19.77;;;;;;;;;;5074509;28;20172;-87
2021/03/04 05:08:11;;;;;;;29.27;20.97;;;;;;;;;;5073467;28;20187;-87
2021/03/04 05:10:37;;;;;;;28.37;19.73;;;;;;;;;;5053872;28;20573;-87
2021/03/04 05:13:03;;;;;;;27.30;19.63;;;;;;;;;;5050612;28;20671;-87
2021/03/04 05:15:29;;;;;;;27.57;20.10;;;;;;;;;;5043351;28;20169;-86
2021/03/04 05:17:55;;;;;;;31.67;21.77;;;;;;;;;;5055764;28;20258;-86
2021/03/04 05:20:21;;;;;;;29.33;20.60;;;;;;;;;;5046509;28;20234;-87
2021/03/04 05:22:48;;;;;;;28.73;21.40;;;;;;;;;;5051901;28;20259;-87
2021/03/04 05:25:14;;;;;;;28.50;20.60;;;;;;;;;;5045940;28;20197;-87
2021/03/04 05:27:40;;;;;;;26.57;19.77;;;;;;;;;;5061515;28;20631;-87
2021/03/04 05:30:06;;;;;;;28.53;20.43;;;;;;;;;;5041178;28;20191;-86
2021/03/04 05:32:33;;;;;;;29.80;21.40;;;;;;;;;;5041801;28;20267;-86
2021/03/04 05:34:59;;;;;;;30.67;20.97;;;;;;;;;;5055383;28;20648;-87
2021/03/04 05:37:25;;;;;;;29.60;21.10;;;;;;;;;;5054964;28;20196;-86
2021/03/04 05:39:51;;;;;;;30.60;20.47;;;;;;;;;;5040696;28;20184;-87
2021/03/04 05:42:17;;;;;;;28.47;20.60;;;;;;;;;;5052479;28;20252;-87
2021/03/04 05:44:44;;;;;;;28.10;20.40;;;;;;;;;;5035900;28;20177;-87
2021/03/04 05:47:10;;;;;;;29.70;21.27;;;;;;;;;;5051337;28;20196;-86
2021/03/04 05:49:47;;;;;;;28.23;20.50;;;;;;;;;;5046934;28;20224;-87
2021/03/04 05:52:16;;;;;;;31.20;21.70;;;;;;;;;;5052249;28;20181;-87
2021/03/04 05:54:43;;;;;;;30.30;22.37;;;;;;;;;;5051591;28;20547;-87
2021/03/04 05:57:09;;;;;;;31.13;21.80;;;;;;;;;;5071020;28;20204;-86
2021/03/04 05:59:36;;;;;;;35.90;22.57;;;;;;;;;;5030331;28;20185;-86
2021/03/04 06:02:05;;;;;;;28.97;21.10;;;;;;;;;;5042006;28;20184;-86
2021/03/04 06:04:32;;;;;;;32.90;22.10;;;;;;;;;;5034776;28;20188;-86
2021/03/04 06:06:58;;;;;;;33.87;22.43;;;;;;;;;;5044414;28;20184;-86
2021/03/04 06:09:24;;;;;;;31.57;22.20;;;;;;;;;;5051578;28;20181;-86
2021/03/04 06:11:50;;;;;;;33.13;22.73;;;;;;;;;;5045684;28;20531;-86
2021/03/04 06:14:17;;;;;;;34.57;23.60;;;;;;;;;;5050888;28;20646;-86
2021/03/04 06:16:43;;;;;;;38.90;23.20;;;;;;;;;;5053355;28;20208;-86
2021/03/04 06:19:18;;;;;;;34.10;22.43;;;;;;;;;;5039646;28;20185;-87
2021/03/04 06:21:44;;;;;;;36.10;23.67;;;;;;;;;;5050311;28;20177;-87
2021/03/04 06:24:13;;;;;;;34.47;22.13;;;;;;;;;;5052198;28;20624;-87
2021/03/04 06:26:40;;;;;;;36.43;25.70;;;;;;;;;;5041322;28;20692;-86
2021/03/04 06:29:16;;;;;;;34.67;22.97;;;;;;;;;;5069199;28;20175;-87
2021/03/04 06:31:43;;;;;;;40.87;23.67;;;;;;;;;;5054673;28;20173;-87
2021/03/04 06:34:16;;;;;;;44.60;26.00;;;;;;;;;;5055162;28;20717;-87
2021/03/04 06:36:52;;;;;;;45.30;27.93;;;;;;;;;;5074752;28;20283;-87
2021/03/04 06:39:18;;;;;;;48.30;27.00;;;;;;;;;;5058080;28;20172;-88
2021/03/04 06:41:44;;;;;;;45.33;24.23;;;;;;;;;;5048787;28;20526;-88
2021/03/04 06:44:10;;;;;;;47.60;26.77;;;;;;;;;;5035498;28;20173;-87
2021/03/04 06:46:46;;;;;;;53.27;29.10;;;;;;;;;;5063909;28;20183;-86
2021/03/04 06:49:12;;;;;;;57.00;28.93;;;;;;;;;;5065148;28;20295;-87
2021/03/04 06:51:44;;;;;;;57.97;30.67;;;;;;;;;;5054964;28;20200;-86
2021/03/04 06:54:21;;;;;;;50.33;28.60;;;;;;;;;;5052054;28;20191;-86
2021/03/04 06:56:47;;;;;;;62.10;29.93;;;;;;;;;;5045607;28;20207;-86
2021/03/04 06:59:13;;;;;;;56.87;30.57;;;;;;;;;;5051217;28;20182;-86
2021/03/04 07:01:39;;;;;;;58.20;31.03;;;;;;;;;;5072093;28;20176;-86
2021/03/04 07:04:12;;;;;;;58.27;31.67;;;;;;;;;;5055027;28;20208;-86
2021/03/04 07:06:39;;;;;;;64.63;33.07;;;;;;;;;;5072110;28;20192;-86
2021/03/04 07:09:06;;;;;;;63.67;32.77;;;;;;;;;;5055724;28;20574;-86
2021/03/04 07:11:34;;;;;;;63.97;33.07;;;;;;;;;;5050815;28;20214;-87
2021/03/04 07:14:00;;;;;;;68.57;33.60;;;;;;;;;;5054459;28;20199;-86
2021/03/04 07:16:53;;;;;;;60.13;29.57;;;;;;;;;;5041425;28;20246;-86
2021/03/04 07:19:19;;;;;;;63.67;30.00;;;;;;;;;;5051020;28;20196;-86
2021/03/04 07:21:46;;;;;;;60.07;32.23;;;;;;;;;;5055888;28;20248;-87
2021/03/04 07:24:12;;;;;;;59.10;31.23;;;;;;;;;;5047201;28;20196;-86
2021/03/04 07:26:38;;;;;;;59.57;30.20;;;;;;;;;;5046433;28;20570;-86
2021/03/04 07:29:08;;;;;;;54.97;30.50;;;;;;;;;;5036359;28;20174;-88
2021/03/04 07:31:34;;;;;;;57.83;29.00;;;;;;;;;;5053490;28;20467;-85
2021/03/04 07:34:01;;;;;;;55.00;27.57;;;;;;;;;;5040472;28;20501;-86
2021/03/04 07:36:28;;;;;;;55.57;28.87;;;;;;;;;;5026863;28;20242;-86
2021/03/04 07:38:59;;;;;;;54.50;28.23;;;;;;;;;;5053423;28;20187;-86
2021/03/04 07:41:39;;;;;;;47.77;26.83;;;;;;;;;;5063389;28;20699;-86
2021/03/04 07:44:06;;;;;;;49.20;27.97;;;;;;;;;;5044095;28;20310;-88
2021/03/04 07:46:38;;;;;;;50.23;26.70;;;;;;;;;;5055027;28;20183;-86
2021/03/04 07:49:05;;;;;;;49.53;26.40;;;;;;;;;;5053063;28;20200;-86
2021/03/04 07:51:42;;;;;;;44.10;26.07;;;;;;;;;;5035435;28;20173;-86
2021/03/04 07:54:09;;;;;;;43.43;25.10;;;;;;;;;;5034528;28;20181;-86
2021/03/04 07:56:35;;;;;;;43.07;25.77;;;;;;;;;;5046546;28;20174;-86
2021/03/04 07:59:11;;;;;;;47.83;25.60;;;;;;;;;;5047391;28;20185;-86
2021/03/04 08:01:38;;;;;;;42.03;24.33;;;;;;;;;;5035388;28;20209;-86
2021/03/04 08:04:04;;;;;;;45.17;24.57;;;;;;;;;;5042322;28;20187;-86
2021/03/04 08:06:30;;;;;;;39.63;22.97;;;;;;;;;;5043160;28;20176;-86
2021/03/04 08:08:56;;;;;;;39.40;24.13;;;;;;;;;;5042416;28;20170;-86
2021/03/04 08:11:29;;;;;;;39.57;23.33;;;;;;;;;;5041871;28;20606;-86
2021/03/04 08:13:56;;;;;;;39.23;22.87;;;;;;;;;;5058990;28;20178;-86
2021/03/04 08:16:22;;;;;;;38.07;22.60;;;;;;;;;;5042106;28;20727;-86
2021/03/04 08:18:55;;;;;;;36.00;21.57;;;;;;;;;;5043239;28;20516;-86
2021/03/04 08:21:21;;;;;;;37.33;21.03;;;;;;;;;;5044526;28;20177;-86
2021/03/04 08:23:48;;;;;;;35.70;21.60;;;;;;;;;;5038453;28;20234;-86
2021/03/04 08:26:25;;;;;;;34.90;20.17;;;;;;;;;;5036306;28;20177;-86
2021/03/04 08:29:11;;;;;;;34.57;21.70;;;;;;;;;;5056409;28;20176;-86
2021/03/04 08:31:44;;;;;;;35.40;19.23;;;;;;;;;;5072245;28;20192;-86
2021/03/04 08:34:10;;;;;;;38.83;21.70;;;;;;;;;;5073916;28;20495;-86
2021/03/04 08:36:43;;;;;;;32.67;20.43;;;;;;;;;;5055442;28;20180;-86
2021/03/04 08:39:09;;;;;;;34.80;19.77;;;;;;;;;;5056383;28;20173;-86
2021/03/04 08:41:35;;;;;;;41.33;21.13;;;;;;;;;;5052968;28;20180;-86
2021/03/04 08:44:12;;;;;;;31.97;19.50;;;;;;;;;;5069976;28;20164;-85
2021/03/04 08:46:39;;;;;;;30.30;18.80;;;;;;;;;;5049595;28;20184;-86
2021/03/04 08:49:06;;;;;;;33.50;20.23;;;;;;;;;;5050265;28;20271;-86
2021/03/04 08:51:32;;;;;;;33.10;19.93;;;;;;;;;;5056537;28;20234;-86
2021/03/04 08:53:58;;;;;;;34.50;20.17;;;;;;;;;;5054425;28;20172;-86
2021/03/04 08:56:24;;;;;;;34.20;18.87;;;;;;;;;;5052867;28;20626;-86
2021/03/04 08:58:50;;;;;;;34.43;18.90;;;;;;;;;;5051020;28;20757;-86
2021/03/04 09:01:16;;;;;;;28.83;16.43;;;;;;;;;;5055641;28;20181;-86
2021/03/04 09:03:43;;;;;;;28.20;16.20;;;;;;;;;;5051106;28;20176;-86
2021/03/04 09:06:10;;;;;;;26.83;16.47;;;;;;;;;;5042185;28;20184;-86
2021/03/04 09:08:38;;;;;;;25.10;15.97;;;;;;;;;;5065058;28;20169;-86
2021/03/04 09:11:05;;;;;;;22.57;15.00;;;;;;;;;;5055225;28;20314;-86
2021/03/04 09:13:32;;;;;;;26.90;15.97;;;;;;;;;;5052535;28;20284;-86
2021/03/04 09:16:05;;;;;;;23.60;14.67;;;;;;;;;;5055625;28;20207;-85
2021/03/04 09:18:31;;;;;;;22.73;14.03;;;;;;;;;;5041039;28;20208;-85
2021/03/04 09:20:58;;;;;;;21.47;13.43;;;;;;;;;;5043927;28;20180;-85
2021/03/04 09:23:24;;;;;;;19.37;13.43;;;;;;;;;;5035997;28;20170;-85
2021/03/04 09:25:54;;;;;;;22.07;13.50;;;;;;;;;;5051665;28;20175;-85
2021/03/04 09:28:20;;;;;;;20.80;12.57;;;;;;;;;;5055206;28;20173;-85
2021/03/04 09:30:47;;;;;;;18.63;12.40;;;;;;;;;;5053926;28;20177;-86
2021/03/04 09:33:18;;;;;;;18.10;11.23;;;;;;;;;;5044112;28;20548;-85
2021/03/04 09:35:58;;;;;;;15.07;10.43;;;;;;;;;;5041146;28;20511;-86
2021/03/04 09:38:24;;;;;;;15.70;10.50;;;;;;;;;;5053887;28;20284;-85
2021/03/04 09:40:50;;;;;;;17.47;11.03;;;;;;;;;;5055402;28;20183;-85
2021/03/04 09:43:19;;;;;;;15.43;10.13;;;;;;;;;;5034673;28;20187;-85
2021/03/04 09:45:46;;;;;;;12.53;9.03;;;;;;;;;;5059061;28;20646;-85
2021/03/04 09:48:12;;;;;;;17.33;11.50;;;;;;;;;;5032367;28;20300;-85
2021/03/04 09:50:38;;;;;;;17.93;10.17;;;;;;;;;;5043716;28;20180;-85
2021/03/04 09:53:06;;;;;;;15.87;9.03;;;;;;;;;;5068760;28;20189;-85
2021/03/04 09:55:38;;;;;;;13.57;9.13;;;;;;;;;;5037852;28;20181;-85
2021/03/04 09:58:17;;;;;;;14.47;9.17;;;;;;;;;;5031538;28;20202;-85
2021/03/04 10:00:44;;;;;;;13.90;9.33;;;;;;;;;;5038936;28;20648;-85
2021/03/04 10:03:11;;;;;;;14.20;9.50;;;;;;;;;;5044527;28;20646;-85
2021/03/04 10:05:47;;;;;;;15.60;9.90;;;;;;;;;;5046662;28;20605;-85
2021/03/04 10:08:13;;;;;;;11.17;8.10;;;;;;;;;;5066193;28;20172;-86
2021/03/04 10:10:40;;;;;;;13.40;7.60;;;;;;;;;;5039961;28;20232;-85
2021/03/04 10:13:06;;;;;;;13.27;8.47;;;;;;;;;;5049271;28;20169;-85
2021/03/04 10:15:38;;;;;;;12.93;7.53;;;;;;;;;;5051677;28;20624;-85
2021/03/04 10:18:09;;;;;;;12.30;7.20;;;;;;;;;;5047905;28;20207;-85
2021/03/04 10:20:36;;;;;;;11.43;7.57;;;;;;;;;;5051397;28;20531;-85
2021/03/04 10:23:03;;;;;;;10.00;7.23;;;;;;;;;;5068514;28;20366;-85
2021/03/04 10:25:29;;;;;;;9.87;7.23;;;;;;;;;;5047765;28;20192;-85
2021/03/04 10:27:57;;;;;;;9.70;6.30;;;;;;;;;;5048576;28;20184;-85
2021/03/04 10:30:23;;;;;;;10.30;6.57;;;;;;;;;;5050665;28;20184;-85
2021/03/04 10:32:49;;;;;;;9.83;6.63;;;;;;;;;;5044850;28;20184;-85
2021/03/04 10:35:16;;;;;;;10.47;6.13;;;;;;;;;;5046434;28;20197;-85
2021/03/04 10:37:43;;;;;;;8.10;5.37;;;;;;;;;;5042335;28;20196;-85
2021/03/04 10:40:10;;;;;;;8.13;5.70;;;;;;;;;;5041074;28;20189;-85
2021/03/04 10:42:36;;;;;;;7.30;4.87;;;;;;;;;;5038556;28;20169;-85
2021/03/04 10:45:03;;;;;;;6.53;5.27;;;;;;;;;;5037322;28;20185;-85
2021/03/04 10:47:30;;;;;;;8.20;5.10;;;;;;;;;;5051928;28;20223;-85
2021/03/04 10:49:56;;;;;;;7.13;4.60;;;;;;;;;;5041403;28;20189;-85
2021/03/04 10:52:23;;;;;;;6.83;4.60;;;;;;;;;;5036383;28;20272;-85
2021/03/04 10:54:50;;;;;;;6.77;4.90;;;;;;;;;;5042019;28;20181;-85
2021/03/04 10:57:16;;;;;;;5.10;4.50;;;;;;;;;;5036567;28;20211;-85
2021/03/04 10:59:42;;;;;;;5.50;4.13;;;;;;;;;;5055086;28;20179;-84
2021/03/04 11:02:08;;;;;;;5.50;4.00;;;;;;;;;;5054423;28;20554;-84
2021/03/04 11:04:34;;;;;;;6.70;4.07;;;;;;;;;;5072293;28;20196;-85
2021/03/04 11:07:00;;;;;;;5.17;3.60;;;;;;;;;;5045421;28;20649;-83
2021/03/04 11:09:26;;;;;;;5.77;3.70;;;;;;;;;;5054750;28;20265;-85
2021/03/04 11:11:52;;;;;;;5.83;3.67;;;;;;;;;;5052538;28;20229;-84
2021/03/04 11:14:18;;;;;;;7.97;3.77;;;;;;;;;;5043783;28;20191;-85
2021/03/04 11:16:45;;;;;;;4.13;3.40;;;;;;;;;;5055485;28;20238;-85
2021/03/04 11:19:11;;;;;;;3.57;2.90;;;;;;;;;;5056475;28;20676;-85
2021/03/04 11:21:37;;;;;;;6.43;4.03;;;;;;;;;;5051088;28;20204;-85
2021/03/04 11:24:06;;;;;;;4.90;3.47;;;;;;;;;;5055558;28;20173;-84
2021/03/04 11:26:32;;;;;;;7.40;3.20;;;;;;;;;;5067121;28;20259;-84
2021/03/04 11:28:58;;;;;;;4.03;2.93;;;;;;;;;;5050319;28;20208;-84
2021/03/04 11:31:24;;;;;;;3.77;3.23;;;;;;;;;;5055718;28;20851;-85
2021/03/04 11:33:50;;;;;;;4.53;3.33;;;;;;;;;;5037791;28;20178;-85
2021/03/04 11:36:16;;;;;;;5.83;3.70;;;;;;;;;;5048451;28;20562;-85
2021/03/04 11:38:42;;;;;;;4.20;3.07;;;;;;;;;;5037838;28;20205;-85
2021/03/04 11:41:08;;;;;;;5.30;3.33;;;;;;;;;;5058389;28;20241;-85
2021/03/04 11:43:34;;;;;;;4.07;3.10;;;;;;;;;;5057385;28;20204;-85
2021/03/04 11:46:00;;;;;;;5.93;4.10;;;;;;;;;;5077830;28;20184;-85
2021/03/04 11:48:26;;;;;;;7.40;4.67;;;;;;;;;;5058291;28;20232;-85
2021/03/04 11:50:52;;;;;;;7.17;5.30;;;;;;;;;;5048208;28;20666;-85
2021/03/04 11:53:18;;;;;;;8.23;5.47;;;;;;;;;;5055781;28;20184;-85
2021/03/04 11:55:44;;;;;;;9.90;6.57;;;;;;;;;;5046832;28;20184;-86
2021/03/04 11:58:10;;;;;;;8.50;5.77;;;;;;;;;;5046889;28;20201;-85
2021/03/04 12:00:36;;;;;;;9.90;6.67;;;;;;;;;;5070502;28;20192;-85
2021/03/04 12:03:03;;;;;;;9.10;6.47;;;;;;;;;;5047137;28;20177;-85
2021/03/04 12:05:29;;;;;;;12.40;6.70;;;;;;;;;;5038989;28;20192;-85
2021/03/04 12:07:55;;;;;;;10.53;6.47;;;;;;;;;;5036333;28;20239;-85
2021/03/04 12:10:21;;;;;;;12.37;8.03;;;;;;;;;;5054881;28;20197;-85
2021/03/04 12:12:47;;;;;;;12.50;7.57;;;;;;;;;;5047631;28;20219;-85
2021/03/04 12:15:15;;;;;;;15.80;9.57;;;;;;;;;;5043026;28;20224;-85
2021/03/04 12:17:41;;;;;;;16.87;9.50;;;;;;;;;;5040650;28;20291;-85
2021/03/04 12:20:08;;;;;;;17.27;9.23;;;;;;;;;;5060267;28;20173;-86
2021/03/04 12:22:34;;;;;;;18.10;10.90;;;;;;;;;;5051525;28;20279;-85
2021/03/04 12:25:00;;;;;;;20.03;12.17;;;;;;;;;;5075746;28;20212;-85
2021/03/04 12:27:26;;;;;;;20.03;12.03;;;;;;;;;;5056936;28;20176;-85
2021/03/04 12:29:52;;;;;;;25.00;13.77;;;;;;;;;;5057583;28;20179;-86
2021/03/04 12:32:18;;;;;;;21.20;12.43;;;;;;;;;;5054653;28;20329;-86
2021/03/04 12:34:44;;;;;;;25.87;14.13;;;;;;;;;;5062875;28;20180;-85
2021/03/04 12:37:11;;;;;;;25.73;13.73;;;;;;;;;;5054374;28;20196;-86
2021/03/04 12:39:37;;;;;;;25.33;14.27;;;;;;;;;;5053624;28;20184;-86
2021/03/04 12:42:03;;;;;;;26.40;15.13;;;;;;;;;;5054890;28;20176;-86
2021/03/04 12:44:29;;;;;;;31.93;16.93;;;;;;;;;;5036296;28;20180;-85
2021/03/04 12:46:55;;;;;;;26.77;15.63;;;;;;;;;;5056381;28;20606;-85
2021/03/04 12:49:21;;;;;;;25.63;15.50;;;;;;;;;;5046778;28;20706;-85
2021/03/04 12:51:47;;;;;;;28.73;17.10;;;;;;;;;;5042466;28;20181;-85
2021/03/04 12:54:13;;;;;;;33.37;17.77;;;;;;;;;;5046616;28;20241;-85
2021/03/04 12:56:39;;;;;;;27.70;17.00;;;;;;;;;;5055336;28;20187;-85
2021/03/04 12:59:06;;;;;;;30.93;17.53;;;;;;;;;;5053129;28;20285;-85
2021/03/04 13:01:33;;;;;;;34.80;18.97;;;;;;;;;;5054527;28;20570;-85
2021/03/04 13:03:59;;;;;;;36.27;19.93;;;;;;;;;;5065983;28;20179;-85
2021/03/04 13:06:25;;;;;;;35.37;18.23;;;;;;;;;;5053382;28;20172;-85
2021/03/04 13:08:52;;;;;;;33.67;18.60;;;;;;;;;;5055604;28;20180;-85
2021/03/04 13:11:19;;;;;;;37.80;18.80;;;;;;;;;;5055594;28;20250;-85
2021/03/04 13:13:45;;;;;;;32.60;18.60;;;;;;;;;;5055815;28;20180;-85
2021/03/04 13:16:11;;;;;;;33.23;17.67;;;;;;;;;;5055901;28;20252;-85
2021/03/04 13:18:37;;;;;;;31.60;18.10;;;;;;;;;;5053826;28;20200;-85
2021/03/04 13:21:03;;;;;;;27.07;15.87;;;;;;;;;;5054892;28;20165;-85
2021/03/04 13:23:29;;;;;;;34.33;16.20;;;;;;;;;;5054338;28;20636;-85
2021/03/04 13:25:55;;;;;;;29.80;15.80;;;;;;;;;;5055377;28;20176;-86
2021/03/04 13:28:21;;;;;;;29.20;16.37;;;;;;;;;;5050015;28;20181;-85
2021/03/04 13:30:47;;;;;;;30.87;16.30;;;;;;;;;;5044930;28;20632;-84
2021/03/04 13:33:13;;;;;;;28.37;16.93;;;;;;;;;;5037225;28;20182;-85
2021/03/04 13:35:39;;;;;;;27.53;15.87;;;;;;;;;;5035075;28;20185;-86
2021/03/04 13:38:05;;;;;;;27.37;15.37;;;;;;;;;;5063430;28;20544;-85
2021/03/04 13:40:32;;;;;;;27.33;14.93;;;;;;;;;;5071994;28;20223;-85
2021/03/04 13:42:58;;;;;;;23.77;13.33;;;;;;;;;;5040929;28;20343;-85
2021/03/04 13:45:24;;;;;;;26.07;14.40;;;;;;;;;;5042723;28;20172;-86
2021/03/04 13:47:50;;;;;;;22.17;13.53;;;;;;;;;;5032319;28;20191;-85
2021/03/04 13:50:16;;;;;;;23.43;13.43;;;;;;;;;;5040570;28;20191;-86
2021/03/04 13:52:42;;;;;;;25.27;14.57;;;;;;;;;;5052972;28;20188;-85
2021/03/04 13:55:08;;;;;;;20.93;11.80;;;;;;;;;;5035757;28;20546;-86
2021/03/04 13:57:34;;;;;;;22.63;13.33;;;;;;;;;;5035711;28;20292;-86
2021/03/04 14:00:00;;;;;;;21.80;12.00;;;;;;;;;;5049592;28;20183;-86
2021/03/04 14:02:26;;;;;;;24.03;13.10;;;;;;;;;;5035079;28;20644;-86
2021/03/04 14:04:52;;;;;;;19.43;11.30;;;;;;;;;;5039156;28;20176;-86
2021/03/04 14:07:18;;;;;;;17.37;10.87;;;;;;;;;;5052416;28;20305;-86
2021/03/04 14:09:44;;;;;;;20.73;10.83;;;;;;;;;;5056414;28;20294;-86
2021/03/04 14:12:10;;;;;;;19.70;12.03;;;;;;;;;;5042856;28;20177;-86
2021/03/04 14:14:37;;;;;;;16.83;9.83;;;;;;;;;;5043590;28;20223;-85
2021/03/04 14:17:03;;;;;;;16.47;10.20;;;;;;;;;;5047509;28;20200;-85
2021/03/04 14:19:29;;;;;;;17.83;10.10;;;;;;;;;;5043743;28;20211;-86
2021/03/04 14:21:55;;;;;;;16.67;10.10;;;;;;;;;;5053083;28;20173;-85
2021/03/04 14:24:21;;;;;;;13.70;9.23;;;;;;;;;;5047176;28;20177;-86